createdAt,value
2019-03-12T00:00:30.385Z,8.97
2019-03-12T00:02:58.579Z,14.10
2019-03-12T00:05:26.907Z,14.63
2019-03-12T00:07:55.037Z,11.67
2019-03-12T00:10:23.165Z,14.03
2019-03-12T00:12:51.294Z,17.37
2019-03-12T00:15:19.423Z,10.43
2019-03-12T00:17:47.544Z,10.30
2019-03-12T00:20:15.697Z,11.00
2019-03-12T00:22:43.829Z,9.17
2019-03-12T00:25:11.952Z,9.48
2019-03-12T00:27:40.118Z,17.25
2019-03-12T00:30:09.437Z,8.45
2019-03-12T00:32:37.617Z,9.60
2019-03-12T00:35:06.334Z,13.48
2019-03-12T00:37:34.617Z,11.67
2019-03-12T00:40:02.949Z,13.98
2019-03-12T00:42:31.201Z,11.47
2019-03-12T00:44:59.518Z,14.07
2019-03-12T00:47:27.624Z,16.70
2019-03-12T00:49:55.766Z,16.00
2019-03-12T00:52:23.877Z,16.27
2019-03-12T00:54:52.033Z,9.93
2019-03-12T00:57:20.433Z,11.03
2019-03-12T00:59:48.759Z,16.33
2019-03-12T01:02:16.878Z,15.53
2019-03-12T01:04:45.042Z,15.77
2019-03-12T01:07:13.146Z,11.07
2019-03-12T01:09:41.267Z,16.20
2019-03-12T01:12:09.386Z,19.10
2019-03-12T01:14:37.538Z,21.85
2019-03-12T01:17:05.658Z,18.33
2019-03-12T01:19:34.007Z,14.67
2019-03-12T01:22:02.210Z,12.60
2019-03-12T01:24:30.617Z,20.93
2019-03-12T01:26:58.801Z,19.10
2019-03-12T01:29:27.010Z,12.93
2019-03-12T01:31:55.201Z,17.12
2019-03-12T01:34:23.310Z,9.50
2019-03-12T01:36:51.974Z,11.95
2019-03-12T01:39:20.192Z,10.13
2019-03-12T01:41:48.358Z,12.10
2019-03-12T01:44:16.519Z,13.37
2019-03-12T01:46:44.690Z,19.33
2019-03-12T01:49:12.899Z,9.88
2019-03-12T01:51:41.235Z,7.43
2019-03-12T01:54:09.363Z,12.75
2019-03-12T01:56:37.497Z,15.40
2019-03-12T01:59:05.847Z,13.27
2019-03-12T02:01:34.036Z,14.83
2019-03-12T02:04:02.160Z,11.90
2019-03-12T02:06:30.384Z,13.25
2019-03-12T02:08:58.804Z,12.77
2019-03-12T02:11:26.950Z,11.97
2019-03-12T02:13:55.091Z,13.53
2019-03-12T02:16:23.215Z,13.73
2019-03-12T02:18:51.412Z,12.87
2019-03-12T02:21:19.659Z,11.70
2019-03-12T02:23:47.797Z,12.88
2019-03-12T02:26:15.912Z,14.10
2019-03-12T02:28:44.049Z,9.90
2019-03-12T02:31:12.196Z,15.90
2019-03-12T02:33:40.722Z,13.53
2019-03-12T02:36:08.839Z,11.67
2019-03-12T02:38:36.969Z,13.77
2019-03-12T02:41:05.167Z,17.02
2019-03-12T02:43:33.406Z,20.03
2019-03-12T02:46:01.583Z,16.65
2019-03-12T02:48:29.807Z,12.37
2019-03-12T02:50:57.954Z,16.67
2019-03-12T02:53:26.124Z,17.83
2019-03-12T02:55:54.240Z,15.10
2019-03-12T02:58:22.562Z,18.23
2019-03-12T03:00:50.680Z,13.27
2019-03-12T03:03:18.830Z,14.13
2019-03-12T03:08:37.700Z,15.57
2019-03-12T03:11:05.845Z,10.20
2019-03-12T03:13:34.083Z,17.43
2019-03-12T03:16:02.305Z,21.33
2019-03-12T03:18:30.499Z,16.05
2019-03-12T03:20:58.754Z,9.23
2019-03-12T03:23:26.881Z,13.73
2019-03-12T03:25:55.033Z,13.38
2019-03-12T03:28:23.146Z,16.40
2019-03-12T03:30:51.429Z,12.05
2019-03-12T03:33:19.577Z,11.07
2019-03-12T03:35:47.704Z,18.62
2019-03-12T03:38:15.971Z,14.13
2019-03-12T03:40:44.096Z,11.73
2019-03-12T03:43:12.229Z,10.13
2019-03-12T03:45:40.799Z,15.63
2019-03-12T03:48:08.914Z,15.47
2019-03-12T03:50:37.148Z,17.83
2019-03-12T03:53:05.327Z,14.53
2019-03-12T03:55:33.522Z,14.03
2019-03-12T03:58:01.822Z,11.63
2019-03-12T04:00:30.161Z,11.73
2019-03-12T04:02:58.367Z,13.13
2019-03-12T04:05:26.496Z,13.80
2019-03-12T04:07:54.736Z,18.77
2019-03-12T04:10:23.003Z,10.80
2019-03-12T04:12:51.147Z,12.47
2019-03-12T04:15:19.479Z,13.62
2019-03-12T04:17:47.726Z,9.53
2019-03-12T04:20:16.394Z,13.20
2019-03-12T04:22:44.708Z,14.95
2019-03-12T04:25:12.902Z,8.50
2019-03-12T04:27:41.090Z,15.28
2019-03-12T04:30:10.962Z,12.57
2019-03-12T04:32:39.085Z,11.20
2019-03-12T04:35:08.675Z,12.33
2019-03-12T04:37:36.810Z,11.50
2019-03-12T04:40:08.963Z,16.10
2019-03-12T04:42:37.104Z,9.30
2019-03-12T04:45:06.778Z,21.27
2019-03-12T04:47:34.902Z,9.93
2019-03-12T04:50:03.801Z,12.80
2019-03-12T04:52:32.134Z,15.30
2019-03-12T04:55:01.053Z,12.83
2019-03-12T04:57:29.379Z,16.40
2019-03-12T04:59:57.590Z,9.60
2019-03-12T05:02:25.768Z,12.30
2019-03-12T05:04:53.924Z,9.70
2019-03-12T05:07:22.149Z,15.37
2019-03-12T05:09:50.300Z,9.70
2019-03-12T05:12:18.474Z,12.55
2019-03-12T05:14:46.606Z,15.30
2019-03-12T05:17:14.744Z,19.23
2019-03-12T05:19:42.936Z,14.03
2019-03-12T05:22:11.800Z,17.47
2019-03-12T05:24:39.905Z,18.77
2019-03-12T05:27:08.057Z,19.30
2019-03-12T05:29:36.171Z,13.20
2019-03-12T05:32:04.380Z,13.17
2019-03-12T05:34:32.486Z,9.50
2019-03-12T05:37:00.611Z,15.55
2019-03-12T05:39:28.740Z,11.20
2019-03-12T05:41:56.935Z,12.58
2019-03-12T05:44:25.068Z,12.87
2019-03-12T05:46:53.208Z,19.00
2019-03-12T05:49:21.434Z,11.00
2019-03-12T05:51:49.684Z,20.00
2019-03-12T05:54:17.894Z,9.40
2019-03-12T05:56:46.750Z,9.57
2019-03-12T05:59:14.861Z,15.80
2019-03-12T06:01:46.597Z,12.97
2019-03-12T06:04:13.298Z,18.40
2019-03-12T06:06:41.628Z,8.00
2019-03-12T06:09:09.854Z,12.80
2019-03-12T06:11:38.011Z,13.33
2019-03-12T06:14:06.222Z,23.32
2019-03-12T06:16:34.362Z,12.67
2019-03-12T06:19:03.254Z,10.87
2019-03-12T06:21:31.460Z,9.97
2019-03-12T06:23:59.600Z,10.47
2019-03-12T06:26:27.843Z,12.63
2019-03-12T06:28:55.975Z,14.63
2019-03-12T06:31:25.835Z,9.57
2019-03-12T06:34:04.887Z,10.07
2019-03-12T06:36:51.432Z,11.53
2019-03-12T06:39:21.240Z,15.43
2019-03-12T06:41:54.034Z,8.43
2019-03-12T06:44:24.079Z,9.50
2019-03-12T06:47:12.329Z,20.27
2019-03-12T06:49:44.966Z,10.55
2019-03-12T06:52:33.106Z,11.63
2019-03-12T06:55:08.990Z,11.87
2019-03-12T06:57:49.268Z,10.72
2019-03-12T07:00:19.103Z,12.60
2019-03-12T07:02:55.091Z,20.03
2019-03-12T07:05:41.590Z,11.33
2019-03-12T07:08:11.406Z,13.37
2019-03-12T07:10:41.239Z,14.27
2019-03-12T07:13:13.521Z,15.13
2019-03-12T07:15:49.122Z,18.85
2019-03-12T07:18:35.416Z,12.77
2019-03-12T07:21:14.019Z,16.30
2019-03-12T07:23:43.842Z,10.50
2019-03-12T07:26:13.713Z,11.87
2019-03-12T07:28:58.976Z,16.53
2019-03-12T07:31:37.695Z,14.67
2019-03-12T07:34:08.258Z,18.23
2019-03-12T07:36:44.088Z,14.63
2019-03-12T07:39:19.574Z,17.60
2019-03-12T07:41:55.423Z,14.37
2019-03-12T07:44:37.253Z,20.23
2019-03-12T07:47:09.815Z,9.57
2019-03-12T07:49:45.374Z,15.77
2019-03-12T07:52:24.390Z,11.37
2019-03-12T07:55:09.267Z,9.90
2019-03-12T07:57:39.067Z,16.20
2019-03-12T08:00:13.430Z,9.53
2019-03-12T08:02:58.709Z,16.30
2019-03-12T08:05:44.495Z,12.90
2019-03-12T08:08:20.236Z,11.78
2019-03-12T08:10:50.044Z,12.70
2019-03-12T08:16:13.430Z,15.63
2019-03-12T08:18:46.186Z,12.13
2019-03-12T08:21:24.739Z,11.43
2019-03-12T08:23:54.499Z,13.93
2019-03-12T08:26:27.086Z,13.17
2019-03-12T08:28:56.902Z,10.93
2019-03-12T08:31:29.263Z,10.47
2019-03-12T08:34:16.117Z,11.80
2019-03-12T08:36:48.637Z,12.40
2019-03-12T08:39:35.071Z,13.15
2019-03-12T08:42:05.160Z,9.03
2019-03-12T08:44:37.551Z,7.17
2019-03-12T08:47:08.977Z,13.10
2019-03-12T08:49:38.789Z,20.37
2019-03-12T08:52:14.382Z,34.23
2019-03-12T08:55:03.489Z,15.70
2019-03-12T08:57:37.511Z,9.22
2019-03-12T09:00:24.243Z,9.37
2019-03-12T09:03:06.185Z,19.17
2019-03-12T09:05:36.010Z,11.37
2019-03-12T09:08:05.838Z,7.50
2019-03-12T09:10:35.614Z,15.90
2019-03-12T09:13:14.523Z,6.40
2019-03-12T09:15:47.133Z,10.30
2019-03-12T09:18:31.949Z,5.93
2019-03-12T09:21:17.879Z,14.03
2019-03-12T09:24:04.218Z,7.20
2019-03-12T09:26:36.673Z,12.10
2019-03-12T09:29:09.244Z,9.10
2019-03-12T09:31:39.003Z,11.87
2019-03-12T09:34:08.795Z,9.15
2019-03-12T09:36:53.526Z,9.17
2019-03-12T09:39:25.990Z,12.70
2019-03-12T09:42:13.418Z,8.67
2019-03-12T09:44:46.051Z,9.37
2019-03-12T09:47:27.853Z,8.60
2019-03-12T09:49:57.631Z,10.83
2019-03-12T09:52:45.777Z,6.67
2019-03-12T09:55:34.341Z,5.90
2019-03-12T09:58:04.118Z,7.23
2019-03-12T10:00:42.730Z,9.50
2019-03-12T10:03:15.386Z,8.97
2019-03-12T10:05:50.994Z,7.20
2019-03-12T10:08:32.538Z,14.43
2019-03-12T10:13:49.784Z,7.07
2019-03-12T10:16:34.777Z,14.30
2019-03-12T10:19:16.675Z,8.97
2019-03-12T10:21:49.454Z,7.90
2019-03-12T10:24:35.884Z,8.90
2019-03-12T10:27:11.504Z,7.08
2019-03-12T10:29:41.374Z,8.77
2019-03-12T10:32:27.478Z,5.43
2019-03-12T10:34:57.267Z,7.67
2019-03-12T10:37:43.715Z,19.23
2019-03-12T10:40:22.551Z,7.60
2019-03-12T10:42:57.863Z,10.80
2019-03-12T10:45:30.209Z,7.47
2019-03-12T10:48:00.359Z,9.63
2019-03-12T10:50:28.752Z,9.57
2019-03-12T10:52:56.861Z,9.70
2019-03-12T10:55:25.047Z,5.33
2019-03-12T10:57:53.284Z,8.77
2019-03-12T11:00:21.670Z,7.80
2019-03-12T11:02:49.782Z,7.67
2019-03-12T11:05:18.266Z,10.57
2019-03-12T11:07:46.480Z,5.60
2019-03-12T11:10:16.259Z,4.83
2019-03-12T11:12:44.434Z,5.20
2019-03-12T11:15:13.021Z,7.73
2019-03-12T11:17:49.704Z,8.73
2019-03-12T11:20:18.429Z,6.83
2019-03-12T11:22:46.555Z,6.60
2019-03-12T11:25:26.671Z,6.90
2019-03-12T11:27:44.650Z,9.20
2019-03-12T11:30:16.380Z,10.23
2019-03-12T11:32:44.577Z,14.95
2019-03-12T11:35:12.762Z,5.83
2019-03-12T11:37:41.680Z,10.13
2019-03-12T11:40:11.377Z,6.97
2019-03-12T11:42:39.621Z,6.60
2019-03-12T11:45:15.383Z,8.78
2019-03-12T11:47:39.159Z,7.93
2019-03-12T11:50:15.387Z,8.90
2019-03-12T11:52:52.464Z,6.63
2019-03-12T11:55:14.399Z,12.03
2019-03-12T11:57:42.642Z,4.77
2019-03-12T12:00:12.407Z,12.13
2019-03-12T12:02:40.585Z,9.20
2019-03-12T12:05:08.847Z,8.10
2019-03-12T12:07:37.035Z,9.83
2019-03-12T12:10:06.743Z,6.87
2019-03-12T12:12:34.918Z,17.30
2019-03-12T12:15:04.184Z,7.43
2019-03-12T12:17:32.394Z,5.08
2019-03-12T12:20:00.623Z,10.83
2019-03-12T12:22:28.838Z,10.13
2019-03-12T12:24:57.049Z,6.70
2019-03-12T12:27:25.972Z,10.43
2019-03-12T12:29:54.140Z,6.13
2019-03-12T12:32:22.271Z,7.50
2019-03-12T12:34:50.608Z,6.15
2019-03-12T12:37:18.724Z,4.27
2019-03-12T12:39:46.948Z,9.85
2019-03-12T12:42:15.063Z,8.03
2019-03-12T12:44:43.749Z,6.03
2019-03-12T12:47:11.850Z,8.53
2019-03-12T12:49:39.983Z,12.10
2019-03-12T12:52:08.104Z,5.13
2019-03-12T12:54:36.225Z,4.90
2019-03-12T12:57:04.460Z,7.87
2019-03-12T12:59:32.679Z,5.20
2019-03-12T13:02:00.882Z,8.27
2019-03-12T13:04:29.153Z,5.07
2019-03-12T13:06:57.957Z,4.40
2019-03-12T13:09:26.102Z,7.03
2019-03-12T13:11:54.292Z,4.30
2019-03-12T13:14:22.441Z,6.75
2019-03-12T13:16:50.563Z,7.75
2019-03-12T13:19:18.766Z,5.75
2019-03-12T13:21:47.053Z,6.20
2019-03-12T13:24:15.194Z,7.87
2019-03-12T13:26:43.329Z,8.70
2019-03-12T13:29:11.451Z,4.03
2019-03-12T13:31:39.634Z,5.28
2019-03-12T13:34:07.774Z,6.73
2019-03-12T13:36:35.898Z,3.45
2019-03-12T13:39:05.916Z,5.77
2019-03-12T13:41:34.296Z,8.00
2019-03-12T13:44:02.593Z,4.27
2019-03-12T13:46:30.757Z,5.23
2019-03-12T13:48:59.009Z,7.73
2019-03-12T13:51:27.376Z,2.87
2019-03-12T13:53:55.569Z,6.93
2019-03-12T13:56:23.791Z,7.97
2019-03-12T13:58:52.727Z,4.40
2019-03-12T14:01:20.969Z,4.87
2019-03-12T14:03:49.104Z,5.37
2019-03-12T14:06:17.267Z,7.43
2019-03-12T14:08:45.391Z,4.63
2019-03-12T14:11:13.541Z,4.30
2019-03-12T14:13:41.749Z,7.53
2019-03-12T14:16:09.858Z,3.90
2019-03-12T14:18:38.011Z,4.60
2019-03-12T14:21:07.599Z,6.67
2019-03-12T14:23:37.108Z,3.12
2019-03-12T14:26:05.437Z,10.17
2019-03-12T14:28:33.674Z,9.70
2019-03-12T14:31:01.856Z,11.83
2019-03-12T14:33:30.030Z,5.70
2019-03-12T14:35:58.227Z,3.20
2019-03-12T14:38:26.366Z,8.07
2019-03-12T14:40:54.603Z,5.37
2019-03-12T14:43:22.825Z,5.80
2019-03-12T14:45:51.664Z,4.70
2019-03-12T14:48:38.802Z,4.70
2019-03-12T14:51:08.704Z,4.10
2019-03-12T14:53:37.973Z,7.03
2019-03-12T14:56:06.095Z,7.47
2019-03-12T14:58:34.325Z,3.67
2019-03-12T15:01:02.505Z,7.00
2019-03-12T15:03:30.725Z,5.47
2019-03-12T15:05:58.912Z,7.30
2019-03-12T15:08:27.189Z,4.07
2019-03-12T15:10:55.356Z,10.03
2019-03-12T15:13:23.602Z,4.60
2019-03-12T15:15:51.771Z,6.30
2019-03-12T15:18:19.903Z,2.47
2019-03-12T15:20:49.178Z,8.43
2019-03-12T15:23:17.356Z,2.70
2019-03-12T15:25:45.473Z,6.05
2019-03-12T15:28:13.627Z,6.07
2019-03-12T15:30:41.834Z,5.60
2019-03-12T15:33:10.001Z,18.80
2019-03-12T15:35:38.188Z,3.98
2019-03-12T15:38:06.394Z,4.53
2019-03-12T15:40:35.093Z,5.92
2019-03-12T15:43:03.248Z,5.40
2019-03-12T15:45:31.461Z,6.27
2019-03-12T15:47:59.625Z,5.50
2019-03-12T15:50:27.762Z,6.67
2019-03-12T15:52:55.893Z,3.10
2019-03-12T15:55:24.059Z,5.33
2019-03-12T15:57:53.225Z,8.85
2019-03-12T16:00:21.478Z,4.80
2019-03-12T16:02:49.709Z,3.43
2019-03-12T16:05:17.934Z,5.45
2019-03-12T16:07:46.082Z,4.47
2019-03-12T16:10:15.734Z,5.47
2019-03-12T16:12:43.868Z,4.07
2019-03-12T16:15:13.505Z,4.27
2019-03-12T16:17:41.614Z,6.10
2019-03-12T16:20:16.760Z,3.50
2019-03-12T16:22:44.973Z,4.23
2019-03-12T16:25:13.173Z,4.67
2019-03-12T16:27:41.378Z,3.00
2019-03-12T16:30:10.973Z,6.00
2019-03-12T16:32:39.114Z,4.63
2019-03-12T16:35:08.027Z,2.90
2019-03-12T16:37:36.225Z,4.57
2019-03-12T16:40:20.024Z,4.30
2019-03-12T16:42:48.299Z,6.30
2019-03-12T16:45:17.002Z,4.07
2019-03-12T16:47:45.132Z,5.67
2019-03-12T16:50:14.088Z,19.77
2019-03-12T16:52:42.520Z,7.60
2019-03-12T16:55:22.129Z,6.17
2019-03-12T16:57:51.528Z,2.10
2019-03-12T17:00:20.423Z,3.70
2019-03-12T17:02:48.688Z,7.30
2019-03-12T17:05:18.357Z,8.03
2019-03-12T17:07:46.525Z,4.97
2019-03-12T17:10:16.213Z,5.77
2019-03-12T17:12:44.531Z,3.23
2019-03-12T17:15:13.863Z,5.00
2019-03-12T17:17:50.235Z,5.20
2019-03-12T17:20:18.725Z,5.67
2019-03-12T17:22:46.828Z,4.73
2019-03-12T17:25:15.012Z,3.90
2019-03-12T17:27:43.256Z,5.37
2019-03-12T17:30:17.932Z,6.90
2019-03-12T17:32:49.105Z,5.57
2019-03-12T17:35:21.410Z,4.10
2019-03-12T17:37:49.508Z,7.77
2019-03-12T17:40:19.305Z,7.40
2019-03-12T17:42:49.550Z,5.20
2019-03-12T17:45:17.557Z,9.85
2019-03-12T17:47:47.221Z,4.70
2019-03-12T17:50:18.203Z,4.33
2019-03-12T17:52:46.319Z,5.20
2019-03-12T17:55:16.504Z,5.97
2019-03-12T17:57:44.687Z,4.67
2019-03-12T18:00:18.138Z,4.10
2019-03-12T18:02:47.846Z,5.80
2019-03-12T18:05:17.380Z,4.23
2019-03-12T18:07:45.719Z,4.50
2019-03-12T18:10:17.127Z,4.40
2019-03-12T18:12:45.297Z,5.80
2019-03-12T18:15:19.255Z,9.40
2019-03-12T18:17:48.679Z,7.65
2019-03-12T18:20:18.327Z,6.53
2019-03-12T18:22:47.230Z,3.23
2019-03-12T18:25:19.133Z,4.37
2019-03-12T18:27:47.249Z,7.67
2019-03-12T18:30:17.615Z,5.93
2019-03-12T18:32:51.184Z,2.97
2019-03-12T18:35:19.320Z,2.93
2019-03-12T18:37:47.476Z,4.43
2019-03-12T18:40:17.116Z,2.83
2019-03-12T18:42:47.975Z,3.40
2019-03-12T18:45:19.864Z,3.95
2019-03-12T18:47:47.997Z,4.33
2019-03-12T18:50:17.230Z,5.28
2019-03-12T18:52:46.983Z,5.53
2019-03-12T18:55:31.679Z,3.05
2019-03-12T18:58:03.024Z,4.13
2019-03-12T19:00:31.682Z,3.50
2019-03-12T19:03:02.699Z,5.50
2019-03-12T19:05:30.816Z,6.97
2019-03-12T19:08:00.499Z,4.57
2019-03-12T19:10:28.986Z,6.20
2019-03-12T19:16:07.336Z,8.07
2019-03-12T19:18:44.125Z,7.13
2019-03-12T19:21:12.687Z,8.20
2019-03-12T19:23:41.553Z,7.07
2019-03-12T19:26:09.770Z,4.33
2019-03-12T19:28:46.676Z,4.53
2019-03-12T19:31:13.961Z,4.50
2019-03-12T19:33:42.176Z,5.20
2019-03-12T19:36:10.391Z,7.55
2019-03-12T19:38:38.674Z,5.70
2019-03-12T19:51:53.898Z,8.98
2019-03-12T19:54:22.240Z,5.40
2019-03-12T19:56:50.492Z,5.67
2019-03-12T19:59:18.724Z,5.57
2019-03-12T20:01:48.400Z,7.20
2019-03-12T20:04:16.658Z,5.33
2019-03-12T20:06:44.972Z,3.63
2019-03-12T20:09:14.812Z,5.53
2019-03-12T20:11:44.461Z,6.87
2019-03-12T20:14:17.761Z,7.00
2019-03-12T20:17:09.092Z,3.20
2019-03-12T20:19:53.795Z,6.57
2019-03-12T20:22:33.875Z,6.53
2019-03-12T20:25:06.517Z,5.90
2019-03-12T20:27:45.250Z,4.55
2019-03-12T20:30:18.117Z,2.63
2019-03-12T20:32:48.411Z,3.63
2019-03-12T20:35:34.984Z,4.20
2019-03-12T20:38:23.020Z,3.73
2019-03-12T20:41:09.600Z,7.47
2019-03-12T20:43:43.611Z,9.03
2019-03-12T20:46:13.776Z,5.78
2019-03-12T20:49:10.820Z,6.63
2019-03-12T20:51:49.837Z,4.80
2019-03-12T20:54:28.784Z,5.53
2019-03-12T20:56:59.957Z,5.30
2019-03-12T20:59:41.474Z,5.75
2019-03-12T21:02:11.235Z,3.20
2019-03-12T21:04:40.999Z,5.47
2019-03-12T21:07:28.678Z,3.07
2019-03-12T21:10:10.229Z,6.00
2019-03-12T21:12:39.918Z,2.35
2019-03-12T21:15:26.452Z,1.53
2019-03-12T21:18:08.444Z,1.70
2019-03-12T21:20:49.212Z,2.60
2019-03-12T21:23:21.985Z,1.87
2019-03-12T21:26:08.477Z,2.07
2019-03-12T21:28:40.155Z,3.10
2019-03-12T21:31:08.360Z,3.60
2019-03-12T21:33:36.553Z,2.70
2019-03-12T21:36:08.004Z,3.92
2019-03-12T21:38:36.297Z,4.53
2019-03-12T21:41:04.531Z,5.40
2019-03-12T21:43:32.724Z,3.80
2019-03-12T21:46:01.663Z,4.20
2019-03-12T21:48:29.877Z,5.33
2019-03-12T21:50:58.418Z,3.97
2019-03-12T21:53:26.732Z,4.10
2019-03-12T21:55:54.997Z,3.98
2019-03-12T21:58:23.193Z,4.40
2019-03-12T22:00:51.446Z,5.30
2019-03-12T22:03:19.595Z,4.50
2019-03-12T22:05:47.730Z,3.93
2019-03-12T22:08:15.851Z,4.23
2019-03-12T22:10:44.147Z,4.67
2019-03-12T22:13:12.259Z,3.63
2019-03-12T22:15:40.459Z,3.72
2019-03-12T22:18:08.628Z,4.67
2019-03-12T22:20:37.219Z,3.90
2019-03-12T22:23:10.146Z,6.57
2019-03-12T22:25:38.360Z,4.03
2019-03-12T22:28:06.986Z,3.50
2019-03-12T22:30:42.561Z,3.90
2019-03-12T22:33:13.951Z,5.87
2019-03-12T22:35:42.077Z,4.10
2019-03-12T22:38:10.191Z,4.37
2019-03-12T22:40:38.423Z,4.63
2019-03-12T22:43:07.293Z,4.30
2019-03-12T22:45:35.402Z,4.17
2019-03-12T22:48:03.905Z,9.00
2019-03-12T22:50:32.011Z,9.03
2019-03-12T22:53:00.300Z,6.07
2019-03-12T22:55:28.432Z,7.70
2019-03-12T22:57:56.532Z,5.90
2019-03-12T23:00:26.199Z,5.93
2019-03-12T23:02:54.416Z,9.00
2019-03-12T23:05:22.509Z,9.07
2019-03-12T23:07:50.737Z,16.23
2019-03-12T23:10:19.513Z,15.50
2019-03-12T23:12:47.652Z,22.70
2019-03-12T23:15:16.895Z,16.37
2019-03-12T23:17:45.068Z,12.13
2019-03-12T23:20:14.582Z,23.52
2019-03-12T23:22:42.784Z,23.30
2019-03-12T23:25:10.948Z,24.60
2019-03-12T23:27:39.094Z,17.20
2019-03-12T23:30:16.976Z,17.83
2019-03-12T23:32:45.161Z,13.13
2019-03-12T23:35:13.352Z,14.17
2019-03-12T23:37:41.665Z,10.77
2019-03-12T23:40:11.348Z,13.20
2019-03-12T23:42:39.467Z,19.93
2019-03-12T23:45:09.120Z,12.73
2019-03-12T23:47:37.333Z,12.07
2019-03-12T23:50:07.508Z,14.83
2019-03-12T23:52:37.179Z,14.00
2019-03-12T23:55:07.385Z,20.43
2019-03-12T23:57:35.563Z,17.63
